sensor_id;sensor_type;location;lat;lon;timestamp;P1;durP1;ratioP1;P2;durP2;ratioP2
62711;SDS011;48772;55.586;37.730;2023-01-28T00:01:51;31.52;;;10.57;;
62711;SDS011;48772;55.586;37.730;2023-01-28T00:04:16;26.27;;;9.98;;
62711;SDS011;48772;55.586;37.730;2023-01-28T00:06:42;30.63;;;10.70;;
62711;SDS011;48772;55.586;37.730;2023-01-28T00:09:08;29.70;;;10.82;;
62711;SDS011;48772;55.586;37.730;2023-01-28T00:11:35;24.70;;;10.57;;
62711;SDS011;48772;55.586;37.730;2023-01-28T00:14:01;31.23;;;11.35;;
62711;SDS011;48772;55.586;37.730;2023-01-28T00:16:29;24.55;;;10.23;;
62711;SDS011;48772;55.586;37.730;2023-01-28T00:18:55;27.08;;;10.60;;
62711;SDS011;48772;55.586;37.730;2023-01-28T00:21:21;22.33;;;10.32;;
62711;SDS011;48772;55.586;37.730;2023-01-28T00:23:49;23.48;;;10.20;;
62711;SDS011;48772;55.586;37.730;2023-01-28T00:26:18;29.00;;;11.57;;
62711;SDS011;48772;55.586;37.730;2023-01-28T00:28:46;25.13;;;11.18;;
62711;SDS011;48772;55.586;37.730;2023-01-28T00:31:20;24.52;;;9.98;;
62711;SDS011;48772;55.586;37.730;2023-01-28T00:33:48;30.77;;;10.60;;
62711;SDS011;48772;55.586;37.730;2023-01-28T00:36:15;30.55;;;10.88;;
62711;SDS011;48772;55.586;37.730;2023-01-28T00:38:42;27.15;;;11.27;;
62711;SDS011;48772;55.586;37.730;2023-01-28T00:41:08;29.05;;;10.77;;
62711;SDS011;48772;55.586;37.730;2023-01-28T00:43:39;23.27;;;9.80;;
62711;SDS011;48772;55.586;37.730;2023-01-28T00:46:08;22.65;;;9.30;;
62711;SDS011;48772;55.586;37.730;2023-01-28T00:48:35;22.55;;;10.50;;
62711;SDS011;48772;55.586;37.730;2023-01-28T00:51:02;23.45;;;10.18;;
62711;SDS011;48772;55.586;37.730;2023-01-28T00:53:28;22.42;;;10.38;;
62711;SDS011;48772;55.586;37.730;2023-01-28T00:55:55;16.40;;;7.97;;
62711;SDS011;48772;55.586;37.730;2023-01-28T00:58:21;17.83;;;8.75;;
62711;SDS011;48772;55.586;37.730;2023-01-28T01:00:49;20.95;;;9.38;;
62711;SDS011;48772;55.586;37.730;2023-01-28T01:03:15;16.95;;;8.23;;
62711;SDS011;48772;55.586;37.730;2023-01-28T01:05:42;17.17;;;9.13;;
62711;SDS011;48772;55.586;37.730;2023-01-28T01:08:07;17.77;;;8.93;;
62711;SDS011;48772;55.586;37.730;2023-01-28T01:10:36;16.80;;;8.27;;
62711;SDS011;48772;55.586;37.730;2023-01-28T01:13:04;14.68;;;7.70;;
62711;SDS011;48772;55.586;37.730;2023-01-28T01:15:31;15.55;;;8.05;;
62711;SDS011;48772;55.586;37.730;2023-01-28T01:17:57;16.58;;;8.10;;
62711;SDS011;48772;55.586;37.730;2023-01-28T01:20:27;12.70;;;7.45;;
62711;SDS011;48772;55.586;37.730;2023-01-28T01:22:55;11.43;;;6.47;;
62711;SDS011;48772;55.586;37.730;2023-01-28T01:25:21;15.70;;;8.00;;
62711;SDS011;48772;55.586;37.730;2023-01-28T01:27:47;15.30;;;8.15;;
62711;SDS011;48772;55.586;37.730;2023-01-28T01:30:14;14.13;;;8.13;;
62711;SDS011;48772;55.586;37.730;2023-01-28T01:32:41;13.05;;;7.47;;
62711;SDS011;48772;55.586;37.730;2023-01-28T01:35:13;15.45;;;7.85;;
62711;SDS011;48772;55.586;37.730;2023-01-28T01:37:42;12.95;;;7.68;;
62711;SDS011;48772;55.586;37.730;2023-01-28T01:40:09;15.02;;;7.78;;
62711;SDS011;48772;55.586;37.730;2023-01-28T01:42:35;13.65;;;8.20;;
62711;SDS011;48772;55.586;37.730;2023-01-28T01:45:11;16.17;;;7.80;;
62711;SDS011;48772;55.586;37.730;2023-01-28T01:50:30;13.73;;;7.75;;
62711;SDS011;48772;55.586;37.730;2023-01-28T01:53:05;13.90;;;7.53;;
62711;SDS011;48772;55.586;37.730;2023-01-28T01:55:34;12.18;;;6.30;;
62711;SDS011;48772;55.586;37.730;2023-01-28T01:58:04;14.30;;;8.02;;
62711;SDS011;48772;55.586;37.730;2023-01-28T02:00:33;12.45;;;7.80;;
62711;SDS011;48772;55.586;37.730;2023-01-28T02:02:59;13.27;;;7.40;;
62711;SDS011;48772;55.586;37.730;2023-01-28T02:05:25;13.77;;;7.18;;
62711;SDS011;48772;55.586;37.730;2023-01-28T02:07:52;13.80;;;7.25;;
62711;SDS011;48772;55.586;37.730;2023-01-28T02:10:43;12.82;;;7.57;;
62711;SDS011;48772;55.586;37.730;2023-01-28T02:13:10;13.45;;;8.10;;
62711;SDS011;48772;55.586;37.730;2023-01-28T02:15:35;16.02;;;7.43;;
62711;SDS011;48772;55.586;37.730;2023-01-28T02:18:02;21.13;;;7.63;;
62711;SDS011;48772;55.586;37.730;2023-01-28T02:29:13;16.20;;;7.32;;
62711;SDS011;48772;55.586;37.730;2023-01-28T02:31:50;12.98;;;7.45;;
62711;SDS011;48772;55.586;37.730;2023-01-28T02:34:26;15.20;;;8.02;;
62711;SDS011;48772;55.586;37.730;2023-01-28T02:39:32;13.82;;;7.93;;
62711;SDS011;48772;55.586;37.730;2023-01-28T02:47:25;12.35;;;6.05;;
62711;SDS011;48772;55.586;37.730;2023-01-28T02:50:13;14.15;;;8.05;;
62711;SDS011;48772;55.586;37.730;2023-01-28T02:53:01;14.55;;;7.68;;
62711;SDS011;48772;55.586;37.730;2023-01-28T02:58:48;13.82;;;7.85;;
62711;SDS011;48772;55.586;37.730;2023-01-28T03:03:55;14.30;;;8.45;;
62711;SDS011;48772;55.586;37.730;2023-01-28T03:06:34;15.50;;;8.07;;
62711;SDS011;48772;55.586;37.730;2023-01-28T03:09:05;16.27;;;9.13;;
62711;SDS011;48772;55.586;37.730;2023-01-28T03:14:42;18.33;;;8.35;;
62711;SDS011;48772;55.586;37.730;2023-01-28T03:20:34;17.85;;;8.63;;
62711;SDS011;48772;55.586;37.730;2023-01-28T03:23:26;20.35;;;9.02;;
62711;SDS011;48772;55.586;37.730;2023-01-28T03:26:15;17.05;;;8.93;;
62711;SDS011;48772;55.586;37.730;2023-01-28T03:29:05;17.55;;;9.27;;
62711;SDS011;48772;55.586;37.730;2023-01-28T03:31:53;19.05;;;8.93;;
62711;SDS011;48772;55.586;37.730;2023-01-28T03:34:38;20.08;;;10.07;;
62711;SDS011;48772;55.586;37.730;2023-01-28T03:37:23;18.27;;;9.82;;
62711;SDS011;48772;55.586;37.730;2023-01-28T03:40:04;24.13;;;9.73;;
62711;SDS011;48772;55.586;37.730;2023-01-28T03:42:32;16.02;;;8.73;;
62711;SDS011;48772;55.586;37.730;2023-01-28T03:45:18;19.08;;;10.50;;
62711;SDS011;48772;55.586;37.730;2023-01-28T03:47:45;17.25;;;9.43;;
62711;SDS011;48772;55.586;37.730;2023-01-28T03:50:11;20.33;;;10.57;;
62711;SDS011;48772;55.586;37.730;2023-01-28T03:52:52;21.95;;;10.68;;
62711;SDS011;48772;55.586;37.730;2023-01-28T03:55:26;18.48;;;10.20;;
62711;SDS011;48772;55.586;37.730;2023-01-28T03:57:52;18.80;;;9.88;;
62711;SDS011;48772;55.586;37.730;2023-01-28T04:00:18;21.02;;;10.20;;
62711;SDS011;48772;55.586;37.730;2023-01-28T04:02:46;22.52;;;10.93;;
62711;SDS011;48772;55.586;37.730;2023-01-28T04:05:15;20.88;;;10.95;;
62711;SDS011;48772;55.586;37.730;2023-01-28T04:07:48;20.70;;;10.38;;
62711;SDS011;48772;55.586;37.730;2023-01-28T04:10:27;21.90;;;10.45;;
62711;SDS011;48772;55.586;37.730;2023-01-28T04:12:56;18.45;;;10.15;;
62711;SDS011;48772;55.586;37.730;2023-01-28T04:15:23;21.33;;;10.98;;
62711;SDS011;48772;55.586;37.730;2023-01-28T04:17:49;19.35;;;10.48;;
62711;SDS011;48772;55.586;37.730;2023-01-28T04:20:23;17.55;;;10.35;;
62711;SDS011;48772;55.586;37.730;2023-01-28T04:22:49;17.60;;;9.50;;
62711;SDS011;48772;55.586;37.730;2023-01-28T04:25:15;16.98;;;9.45;;
62711;SDS011;48772;55.586;37.730;2023-01-28T04:27:42;17.15;;;9.90;;
62711;SDS011;48772;55.586;37.730;2023-01-28T04:30:20;17.67;;;10.20;;
62711;SDS011;48772;55.586;37.730;2023-01-28T04:33:00;21.02;;;10.57;;
62711;SDS011;48772;55.586;37.730;2023-01-28T04:35:45;21.08;;;10.23;;
62711;SDS011;48772;55.586;37.730;2023-01-28T04:38:30;16.65;;;10.23;;
62711;SDS011;48772;55.586;37.730;2023-01-28T04:41:04;14.43;;;8.98;;
62711;SDS011;48772;55.586;37.730;2023-01-28T04:43:32;16.77;;;10.45;;
62711;SDS011;48772;55.586;37.730;2023-01-28T04:46:27;15.93;;;10.43;;
62711;SDS011;48772;55.586;37.730;2023-01-28T04:49:00;18.20;;;10.48;;
62711;SDS011;48772;55.586;37.730;2023-01-28T04:51:49;14.80;;;8.25;;
62711;SDS011;48772;55.586;37.730;2023-01-28T04:54:39;14.40;;;9.25;;
62711;SDS011;48772;55.586;37.730;2023-01-28T04:57:05;16.58;;;8.93;;
62711;SDS011;48772;55.586;37.730;2023-01-28T04:59:33;15.68;;;9.43;;
62711;SDS011;48772;55.586;37.730;2023-01-28T05:02:00;15.48;;;8.85;;
62711;SDS011;48772;55.586;37.730;2023-01-28T05:04:26;14.10;;;9.05;;
62711;SDS011;48772;55.586;37.730;2023-01-28T05:06:52;17.77;;;10.05;;
62711;SDS011;48772;55.586;37.730;2023-01-28T05:09:22;13.55;;;7.68;;
62711;SDS011;48772;55.586;37.730;2023-01-28T05:11:49;15.45;;;9.10;;
62711;SDS011;48772;55.586;37.730;2023-01-28T05:14:15;17.25;;;8.25;;
62711;SDS011;48772;55.586;37.730;2023-01-28T05:16:54;17.67;;;9.68;;
62711;SDS011;48772;55.586;37.730;2023-01-28T05:19:20;16.65;;;9.65;;
62711;SDS011;48772;55.586;37.730;2023-01-28T05:21:46;16.38;;;9.55;;
62711;SDS011;48772;55.586;37.730;2023-01-28T05:24:30;16.98;;;9.55;;
62711;SDS011;48772;55.586;37.730;2023-01-28T05:26:56;15.32;;;9.77;;
62711;SDS011;48772;55.586;37.730;2023-01-28T05:29:22;18.27;;;9.20;;
62711;SDS011;48772;55.586;37.730;2023-01-28T05:31:48;15.93;;;9.32;;
62711;SDS011;48772;55.586;37.730;2023-01-28T05:34:14;15.05;;;9.52;;
62711;SDS011;48772;55.586;37.730;2023-01-28T05:36:40;15.73;;;9.20;;
62711;SDS011;48772;55.586;37.730;2023-01-28T05:39:22;16.35;;;9.77;;
62711;SDS011;48772;55.586;37.730;2023-01-28T05:41:47;15.00;;;8.95;;
62711;SDS011;48772;55.586;37.730;2023-01-28T05:44:13;13.80;;;9.27;;
62711;SDS011;48772;55.586;37.730;2023-01-28T05:47:08;14.30;;;8.48;;
62711;SDS011;48772;55.586;37.730;2023-01-28T05:49:53;14.32;;;8.27;;
62711;SDS011;48772;55.586;37.730;2023-01-28T05:52:31;14.02;;;8.93;;
62711;SDS011;48772;55.586;37.730;2023-01-28T05:54:58;13.20;;;8.52;;
62711;SDS011;48772;55.586;37.730;2023-01-28T05:57:24;14.68;;;8.50;;
62711;SDS011;48772;55.586;37.730;2023-01-28T05:59:50;12.20;;;7.72;;
62711;SDS011;48772;55.586;37.730;2023-01-28T06:02:16;17.23;;;9.20;;
62711;SDS011;48772;55.586;37.730;2023-01-28T06:04:45;13.90;;;8.18;;
62711;SDS011;48772;55.586;37.730;2023-01-28T06:07:11;15.07;;;8.82;;
62711;SDS011;48772;55.586;37.730;2023-01-28T06:09:38;20.33;;;9.05;;
62711;SDS011;48772;55.586;37.730;2023-01-28T06:12:05;14.20;;;8.80;;
62711;SDS011;48772;55.586;37.730;2023-01-28T06:14:39;13.63;;;9.20;;
62711;SDS011;48772;55.586;37.730;2023-01-28T06:17:13;14.40;;;8.23;;
62711;SDS011;48772;55.586;37.730;2023-01-28T06:20:00;12.18;;;7.50;;
62711;SDS011;48772;55.586;37.730;2023-01-28T06:22:28;14.05;;;8.38;;
62711;SDS011;48772;55.586;37.730;2023-01-28T06:24:54;14.45;;;8.13;;
62711;SDS011;48772;55.586;37.730;2023-01-28T06:27:20;17.25;;;9.23;;
62711;SDS011;48772;55.586;37.730;2023-01-28T06:29:46;16.85;;;9.20;;
62711;SDS011;48772;55.586;37.730;2023-01-28T06:32:11;16.17;;;8.93;;
62711;SDS011;48772;55.586;37.730;2023-01-28T06:34:40;16.58;;;8.52;;
62711;SDS011;48772;55.586;37.730;2023-01-28T06:37:06;16.42;;;9.98;;
62711;SDS011;48772;55.586;37.730;2023-01-28T06:39:35;17.60;;;9.90;;
62711;SDS011;48772;55.586;37.730;2023-01-28T06:42:00;16.73;;;9.15;;
62711;SDS011;48772;55.586;37.730;2023-01-28T06:44:29;19.42;;;10.32;;
62711;SDS011;48772;55.586;37.730;2023-01-28T06:46:55;17.73;;;9.13;;
62711;SDS011;48772;55.586;37.730;2023-01-28T06:49:21;23.88;;;11.60;;
62711;SDS011;48772;55.586;37.730;2023-01-28T06:51:47;20.90;;;10.07;;
62711;SDS011;48772;55.586;37.730;2023-01-28T06:54:13;16.42;;;9.15;;
62711;SDS011;48772;55.586;37.730;2023-01-28T06:56:39;19.20;;;10.88;;
62711;SDS011;48772;55.586;37.730;2023-01-28T06:59:05;24.88;;;11.75;;
62711;SDS011;48772;55.586;37.730;2023-01-28T07:01:31;24.40;;;11.52;;
62711;SDS011;48772;55.586;37.730;2023-01-28T07:03:57;18.48;;;9.65;;
62711;SDS011;48772;55.586;37.730;2023-01-28T07:06:23;19.92;;;10.82;;
62711;SDS011;48772;55.586;37.730;2023-01-28T07:08:49;18.83;;;10.27;;
62711;SDS011;48772;55.586;37.730;2023-01-28T07:11:15;18.65;;;9.32;;
62711;SDS011;48772;55.586;37.730;2023-01-28T07:13:40;20.30;;;10.23;;
62711;SDS011;48772;55.586;37.730;2023-01-28T07:16:07;20.67;;;9.98;;
62711;SDS011;48772;55.586;37.730;2023-01-28T07:18:33;19.30;;;10.23;;
62711;SDS011;48772;55.586;37.730;2023-01-28T07:21:00;21.38;;;10.48;;
62711;SDS011;48772;55.586;37.730;2023-01-28T07:23:25;17.98;;;9.52;;
62711;SDS011;48772;55.586;37.730;2023-01-28T07:25:51;17.05;;;8.68;;
62711;SDS011;48772;55.586;37.730;2023-01-28T07:28:17;18.95;;;9.77;;
62711;SDS011;48772;55.586;37.730;2023-01-28T07:30:48;18.83;;;10.45;;
62711;SDS011;48772;55.586;37.730;2023-01-28T07:33:15;18.50;;;9.52;;
62711;SDS011;48772;55.586;37.730;2023-01-28T07:35:41;18.60;;;8.75;;
62711;SDS011;48772;55.586;37.730;2023-01-28T07:38:08;17.63;;;7.55;;
62711;SDS011;48772;55.586;37.730;2023-01-28T07:40:34;15.90;;;8.77;;
62711;SDS011;48772;55.586;37.730;2023-01-28T07:42:59;14.13;;;7.65;;
62711;SDS011;48772;55.586;37.730;2023-01-28T07:45:26;15.63;;;8.43;;
62711;SDS011;48772;55.586;37.730;2023-01-28T07:47:58;17.35;;;8.93;;
62711;SDS011;48772;55.586;37.730;2023-01-28T07:50:26;14.90;;;8.15;;
62711;SDS011;48772;55.586;37.730;2023-01-28T07:52:54;16.05;;;8.38;;
62711;SDS011;48772;55.586;37.730;2023-01-28T07:55:20;14.30;;;7.72;;
62711;SDS011;48772;55.586;37.730;2023-01-28T07:57:50;19.05;;;9.10;;
62711;SDS011;48772;55.586;37.730;2023-01-28T08:00:20;18.95;;;9.82;;
62711;SDS011;48772;55.586;37.730;2023-01-28T08:02:54;17.55;;;9.13;;
62711;SDS011;48772;55.586;37.730;2023-01-28T08:05:24;20.42;;;9.98;;
62711;SDS011;48772;55.586;37.730;2023-01-28T08:07:51;17.23;;;9.18;;
62711;SDS011;48772;55.586;37.730;2023-01-28T08:10:17;18.67;;;10.27;;
62711;SDS011;48772;55.586;37.730;2023-01-28T08:12:51;20.80;;;10.77;;
62711;SDS011;48772;55.586;37.730;2023-01-28T08:15:20;19.08;;;10.75;;
62711;SDS011;48772;55.586;37.730;2023-01-28T08:17:46;22.52;;;11.32;;
62711;SDS011;48772;55.586;37.730;2023-01-28T08:20:12;19.85;;;10.43;;
62711;SDS011;48772;55.586;37.730;2023-01-28T08:22:38;22.13;;;10.68;;
62711;SDS011;48772;55.586;37.730;2023-01-28T08:25:04;22.05;;;11.45;;
62711;SDS011;48772;55.586;37.730;2023-01-28T08:27:30;24.02;;;11.52;;
62711;SDS011;48772;55.586;37.730;2023-01-28T08:29:56;20.70;;;10.63;;
62711;SDS011;48772;55.586;37.730;2023-01-28T08:32:22;19.90;;;10.25;;
62711;SDS011;48772;55.586;37.730;2023-01-28T08:34:47;25.63;;;11.10;;
62711;SDS011;48772;55.586;37.730;2023-01-28T08:37:13;19.67;;;10.70;;
62711;SDS011;48772;55.586;37.730;2023-01-28T08:39:39;21.08;;;10.77;;
62711;SDS011;48772;55.586;37.730;2023-01-28T08:42:05;22.98;;;12.02;;
62711;SDS011;48772;55.586;37.730;2023-01-28T08:44:31;25.63;;;11.80;;
62711;SDS011;48772;55.586;37.730;2023-01-28T08:46:57;25.10;;;12.45;;
62711;SDS011;48772;55.586;37.730;2023-01-28T08:49:23;23.95;;;12.00;;
62711;SDS011;48772;55.586;37.730;2023-01-28T08:52:08;30.17;;;13.25;;
62711;SDS011;48772;55.586;37.730;2023-01-28T08:54:35;23.73;;;12.65;;
62711;SDS011;48772;55.586;37.730;2023-01-28T08:57:17;24.02;;;11.85;;
62711;SDS011;48772;55.586;37.730;2023-01-28T08:59:48;22.98;;;11.38;;
62711;SDS011;48772;55.586;37.730;2023-01-28T09:09:47;23.90;;;12.10;;
62711;SDS011;48772;55.586;37.730;2023-01-28T09:12:13;22.23;;;11.95;;
62711;SDS011;48772;55.586;37.730;2023-01-28T09:14:49;27.58;;;11.77;;
62711;SDS011;48772;55.586;37.730;2023-01-28T09:17:20;23.65;;;12.05;;
62711;SDS011;48772;55.586;37.730;2023-01-28T09:19:46;26.40;;;12.23;;
62711;SDS011;48772;55.586;37.730;2023-01-28T09:22:12;24.52;;;11.73;;
62711;SDS011;48772;55.586;37.730;2023-01-28T09:24:39;24.63;;;12.00;;
62711;SDS011;48772;55.586;37.730;2023-01-28T09:27:07;24.00;;;11.85;;
62711;SDS011;48772;55.586;37.730;2023-01-28T09:29:34;23.88;;;11.75;;
62711;SDS011;48772;55.586;37.730;2023-01-28T09:32:03;24.63;;;11.95;;
62711;SDS011;48772;55.586;37.730;2023-01-28T09:34:31;21.90;;;11.80;;
62711;SDS011;48772;55.586;37.730;2023-01-28T09:36:58;20.88;;;11.57;;
62711;SDS011;48772;55.586;37.730;2023-01-28T09:43:32;20.35;;;10.70;;
62711;SDS011;48772;55.586;37.730;2023-01-28T09:46:15;20.40;;;10.23;;
62711;SDS011;48772;55.586;37.730;2023-01-28T09:48:47;22.80;;;12.05;;
62711;SDS011;48772;55.586;37.730;2023-01-28T09:51:31;22.70;;;12.10;;
62711;SDS011;48772;55.586;37.730;2023-01-28T09:54:11;22.88;;;11.52;;
62711;SDS011;48772;55.586;37.730;2023-01-28T09:56:49;24.02;;;11.48;;
62711;SDS011;48772;55.586;37.730;2023-01-28T09:59:20;23.10;;;11.15;;
62711;SDS011;48772;55.586;37.730;2023-01-28T10:05:02;26.00;;;11.57;;
62711;SDS011;48772;55.586;37.730;2023-01-28T10:17:53;21.08;;;11.07;;
62711;SDS011;48772;55.586;37.730;2023-01-28T10:20:53;19.95;;;10.38;;
62711;SDS011;48772;55.586;37.730;2023-01-28T10:23:27;18.48;;;10.43;;
62711;SDS011;48772;55.586;37.730;2023-01-28T10:26:24;20.17;;;10.13;;
62711;SDS011;48772;55.586;37.730;2023-01-28T10:28:59;19.88;;;10.90;;
62711;SDS011;48772;55.586;37.730;2023-01-28T10:31:44;18.02;;;9.68;;
62711;SDS011;48772;55.586;37.730;2023-01-28T10:34:44;17.80;;;9.50;;
62711;SDS011;48772;55.586;37.730;2023-01-28T10:37:13;20.00;;;9.82;;
62711;SDS011;48772;55.586;37.730;2023-01-28T10:39:44;19.67;;;9.48;;
62711;SDS011;48772;55.586;37.730;2023-01-28T10:42:29;18.50;;;9.77;;
62711;SDS011;48772;55.586;37.730;2023-01-28T10:45:19;20.83;;;9.52;;
62711;SDS011;48772;55.586;37.730;2023-01-28T10:47:53;18.05;;;8.32;;
62711;SDS011;48772;55.586;37.730;2023-01-28T10:50:28;18.38;;;8.88;;
62711;SDS011;48772;55.586;37.730;2023-01-28T10:52:56;16.13;;;8.20;;
62711;SDS011;48772;55.586;37.730;2023-01-28T10:55:29;18.90;;;9.45;;
62711;SDS011;48772;55.586;37.730;2023-01-28T10:58:24;16.05;;;8.82;;
62711;SDS011;48772;55.586;37.730;2023-01-28T11:00:54;13.00;;;7.63;;
62711;SDS011;48772;55.586;37.730;2023-01-28T11:03:25;18.50;;;8.57;;
62711;SDS011;48772;55.586;37.730;2023-01-28T11:06:02;19.30;;;9.23;;
62711;SDS011;48772;55.586;37.730;2023-01-28T11:08:29;15.18;;;9.05;;
62711;SDS011;48772;55.586;37.730;2023-01-28T11:10:59;17.13;;;9.38;;
62711;SDS011;48772;55.586;37.730;2023-01-28T11:14:17;15.13;;;9.23;;
62711;SDS011;48772;55.586;37.730;2023-01-28T11:17:10;17.00;;;9.50;;
62711;SDS011;48772;55.586;37.730;2023-01-28T11:19:49;22.90;;;10.35;;
62711;SDS011;48772;55.586;37.730;2023-01-28T11:24:54;17.60;;;9.50;;
62711;SDS011;48772;55.586;37.730;2023-01-28T11:27:23;17.95;;;9.65;;
62711;SDS011;48772;55.586;37.730;2023-01-28T11:29:57;16.38;;;9.75;;
62711;SDS011;48772;55.586;37.730;2023-01-28T11:33:05;18.63;;;9.00;;
62711;SDS011;48772;55.586;37.730;2023-01-28T11:35:33;22.35;;;11.07;;
62711;SDS011;48772;55.586;37.730;2023-01-28T11:38:13;17.60;;;9.82;;
62711;SDS011;48772;55.586;37.730;2023-01-28T11:40:48;20.85;;;10.90;;
62711;SDS011;48772;55.586;37.730;2023-01-28T11:43:17;22.80;;;11.30;;
62711;SDS011;48772;55.586;37.730;2023-01-28T11:45:56;18.88;;;12.00;;
62711;SDS011;48772;55.586;37.730;2023-01-28T11:51:57;23.33;;;11.70;;
62711;SDS011;48772;55.586;37.730;2023-01-28T12:04:13;17.52;;;9.98;;
62711;SDS011;48772;55.586;37.730;2023-01-28T12:09:54;21.17;;;12.43;;
62711;SDS011;48772;55.586;37.730;2023-01-28T12:26:10;17.23;;;10.85;;
62711;SDS011;48772;55.586;37.730;2023-01-28T12:28:48;19.13;;;11.45;;
62711;SDS011;48772;55.586;37.730;2023-01-28T12:42:31;21.67;;;11.85;;
62711;SDS011;48772;55.586;37.730;2023-01-28T12:57:04;15.10;;;8.55;;
62711;SDS011;48772;55.586;37.730;2023-01-28T13:02:41;20.45;;;9.70;;
62711;SDS011;48772;55.586;37.730;2023-01-28T13:05:13;19.17;;;10.50;;
62711;SDS011;48772;55.586;37.730;2023-01-28T13:07:58;19.55;;;10.32;;
62711;SDS011;48772;55.586;37.730;2023-01-28T13:10:35;20.08;;;9.52;;
62711;SDS011;48772;55.586;37.730;2023-01-28T13:13:05;20.05;;;9.65;;
62711;SDS011;48772;55.586;37.730;2023-01-28T13:15:38;17.35;;;8.90;;
62711;SDS011;48772;55.586;37.730;2023-01-28T13:18:29;17.33;;;8.80;;
62711;SDS011;48772;55.586;37.730;2023-01-28T13:21:06;17.27;;;9.77;;
62711;SDS011;48772;55.586;37.730;2023-01-28T13:26:27;18.88;;;10.10;;
62711;SDS011;48772;55.586;37.730;2023-01-28T13:29:27;16.20;;;9.00;;
62711;SDS011;48772;55.586;37.730;2023-01-28T13:32:01;20.55;;;10.73;;
62711;SDS011;48772;55.586;37.730;2023-01-28T13:34:55;21.88;;;9.70;;
62711;SDS011;48772;55.586;37.730;2023-01-28T13:37:36;19.83;;;10.07;;
62711;SDS011;48772;55.586;37.730;2023-01-28T13:40:07;22.88;;;11.25;;
62711;SDS011;48772;55.586;37.730;2023-01-28T13:42:59;21.35;;;11.00;;
62711;SDS011;48772;55.586;37.730;2023-01-28T13:45:31;23.42;;;11.77;;
62711;SDS011;48772;55.586;37.730;2023-01-28T13:48:29;20.85;;;10.95;;
62711;SDS011;48772;55.586;37.730;2023-01-28T13:51:03;21.88;;;10.30;;
62711;SDS011;48772;55.586;37.730;2023-01-28T13:56:31;20.80;;;9.57;;
62711;SDS011;48772;55.586;37.730;2023-01-28T14:10:21;19.92;;;9.50;;
62711;SDS011;48772;55.586;37.730;2023-01-28T14:18:42;19.20;;;10.02;;
62711;SDS011;48772;55.586;37.730;2023-01-28T14:21:20;20.50;;;10.02;;
62711;SDS011;48772;55.586;37.730;2023-01-28T14:23:47;21.05;;;9.77;;
62711;SDS011;48772;55.586;37.730;2023-01-28T14:32:16;23.80;;;11.60;;
62711;SDS011;48772;55.586;37.730;2023-01-28T14:34:44;19.92;;;9.60;;
62711;SDS011;48772;55.586;37.730;2023-01-28T14:37:12;25.40;;;11.10;;
62711;SDS011;48772;55.586;37.730;2023-01-28T14:39:44;22.23;;;10.88;;
62711;SDS011;48772;55.586;37.730;2023-01-28T14:42:22;18.13;;;9.05;;
62711;SDS011;48772;55.586;37.730;2023-01-28T14:50:36;21.45;;;10.50;;
62711;SDS011;48772;55.586;37.730;2023-01-28T14:56:04;22.55;;;10.57;;
62711;SDS011;48772;55.586;37.730;2023-01-28T15:01:44;21.52;;;11.38;;
62711;SDS011;48772;55.586;37.730;2023-01-28T15:04:28;24.17;;;10.50;;
62711;SDS011;48772;55.586;37.730;2023-01-28T15:06:56;16.55;;;9.00;;
62711;SDS011;48772;55.586;37.730;2023-01-28T15:09:37;20.05;;;10.13;;
62711;SDS011;48772;55.586;37.730;2023-01-28T15:12:03;19.45;;;10.25;;
62711;SDS011;48772;55.586;37.730;2023-01-28T15:14:32;22.08;;;10.18;;
62711;SDS011;48772;55.586;37.730;2023-01-28T15:17:01;15.88;;;8.98;;
62711;SDS011;48772;55.586;37.730;2023-01-28T15:19:28;19.70;;;9.60;;
62711;SDS011;48772;55.586;37.730;2023-01-28T15:21:57;21.92;;;9.43;;
62711;SDS011;48772;55.586;37.730;2023-01-28T15:24:26;21.85;;;9.95;;
62711;SDS011;48772;55.586;37.730;2023-01-28T15:26:52;23.42;;;10.52;;
62711;SDS011;48772;55.586;37.730;2023-01-28T15:29:22;21.95;;;9.50;;
62711;SDS011;48772;55.586;37.730;2023-01-28T15:32:00;25.25;;;10.27;;
62711;SDS011;48772;55.586;37.730;2023-01-28T15:34:26;21.88;;;10.55;;
62711;SDS011;48772;55.586;37.730;2023-01-28T15:36:55;21.27;;;10.85;;
62711;SDS011;48772;55.586;37.730;2023-01-28T15:39:24;20.42;;;10.40;;
62711;SDS011;48772;55.586;37.730;2023-01-28T15:42:03;23.95;;;11.10;;
62711;SDS011;48772;55.586;37.730;2023-01-28T15:44:51;23.00;;;10.48;;
62711;SDS011;48772;55.586;37.730;2023-01-28T15:47:22;22.38;;;10.90;;
62711;SDS011;48772;55.586;37.730;2023-01-28T15:49:54;25.00;;;11.27;;
62711;SDS011;48772;55.586;37.730;2023-01-28T15:52:41;21.83;;;10.73;;
62711;SDS011;48772;55.586;37.730;2023-01-28T15:58:49;26.40;;;11.40;;
62711;SDS011;48772;55.586;37.730;2023-01-28T16:01:19;26.50;;;11.23;;
62711;SDS011;48772;55.586;37.730;2023-01-28T16:03:59;22.42;;;11.55;;
62711;SDS011;48772;55.586;37.730;2023-01-28T16:06:37;25.17;;;11.80;;
62711;SDS011;48772;55.586;37.730;2023-01-28T16:09:13;25.80;;;11.93;;
62711;SDS011;48772;55.586;37.730;2023-01-28T16:11:44;21.60;;;11.05;;
62711;SDS011;48772;55.586;37.730;2023-01-28T16:14:19;24.77;;;11.98;;
62711;SDS011;48772;55.586;37.730;2023-01-28T16:16:50;22.55;;;10.55;;
62711;SDS011;48772;55.586;37.730;2023-01-28T16:19:30;24.67;;;11.50;;
62711;SDS011;48772;55.586;37.730;2023-01-28T16:25:30;23.35;;;11.13;;
62711;SDS011;48772;55.586;37.730;2023-01-28T16:28:01;24.60;;;11.48;;
62711;SDS011;48772;55.586;37.730;2023-01-28T16:30:37;21.38;;;11.63;;
62711;SDS011;48772;55.586;37.730;2023-01-28T16:33:03;23.55;;;11.50;;
62711;SDS011;48772;55.586;37.730;2023-01-28T16:35:29;24.00;;;11.45;;
62711;SDS011;48772;55.586;37.730;2023-01-28T16:37:55;23.65;;;12.02;;
62711;SDS011;48772;55.586;37.730;2023-01-28T16:40:22;23.02;;;11.98;;
62711;SDS011;48772;55.586;37.730;2023-01-28T16:42:52;24.75;;;12.75;;
62711;SDS011;48772;55.586;37.730;2023-01-28T16:45:21;25.65;;;13.02;;
62711;SDS011;48772;55.586;37.730;2023-01-28T16:47:49;25.52;;;12.80;;
62711;SDS011;48772;55.586;37.730;2023-01-28T16:50:16;26.77;;;13.35;;
62711;SDS011;48772;55.586;37.730;2023-01-28T16:52:47;18.85;;;10.15;;
62711;SDS011;48772;55.586;37.730;2023-01-28T16:55:16;27.02;;;13.23;;
62711;SDS011;48772;55.586;37.730;2023-01-28T16:57:45;25.40;;;12.90;;
62711;SDS011;48772;55.586;37.730;2023-01-28T17:00:24;27.02;;;12.88;;
62711;SDS011;48772;55.586;37.730;2023-01-28T17:02:53;30.05;;;12.77;;
62711;SDS011;48772;55.586;37.730;2023-01-28T17:05:20;29.40;;;12.88;;
62711;SDS011;48772;55.586;37.730;2023-01-28T17:07:48;31.75;;;13.18;;
62711;SDS011;48772;55.586;37.730;2023-01-28T17:10:27;29.63;;;14.27;;
62711;SDS011;48772;55.586;37.730;2023-01-28T17:12:59;32.13;;;14.20;;
62711;SDS011;48772;55.586;37.730;2023-01-28T17:15:26;29.00;;;13.88;;
62711;SDS011;48772;55.586;37.730;2023-01-28T17:17:52;31.40;;;14.50;;
62711;SDS011;48772;55.586;37.730;2023-01-28T17:20:20;38.38;;;15.90;;
62711;SDS011;48772;55.586;37.730;2023-01-28T17:22:46;31.70;;;14.57;;
62711;SDS011;48772;55.586;37.730;2023-01-28T17:25:13;30.17;;;15.27;;
62711;SDS011;48772;55.586;37.730;2023-01-28T17:27:39;37.15;;;15.68;;